createdAt,value
2018-12-20T15:14:04.732Z,3.77
2018-12-20T15:16:33.766Z,2.27
2018-12-20T15:19:48.926Z,2.60
2018-12-20T15:22:17.426Z,2.37
2018-12-20T15:24:45.843Z,2.90
2018-12-20T15:27:14.340Z,2.63
2018-12-20T15:29:42.935Z,3.33
2018-12-20T15:32:11.984Z,2.50
2018-12-20T15:34:53.172Z,3.00
2018-12-20T15:37:21.738Z,3.97
2018-12-20T15:39:50.158Z,4.53
2018-12-20T15:42:18.762Z,4.10
2018-12-20T15:44:47.183Z,4.87
2018-12-20T15:47:15.617Z,4.57
2018-12-20T15:49:51.981Z,3.07
2018-12-20T15:52:20.804Z,3.33
2018-12-20T15:54:49.280Z,3.10
2018-12-20T15:57:17.755Z,3.83
2018-12-20T15:59:46.211Z,4.13
2018-12-20T16:02:14.882Z,3.40
2018-12-20T16:04:57.437Z,3.90
2018-12-20T16:07:25.885Z,4.13
2018-12-20T16:09:54.335Z,4.50
2018-12-20T16:12:22.758Z,2.80
2018-12-20T16:14:51.190Z,3.80
2018-12-20T16:17:19.993Z,2.67
2018-12-20T16:19:48.467Z,2.50
2018-12-20T16:22:16.882Z,2.33
2018-12-20T16:24:45.328Z,3.07
2018-12-20T16:27:13.879Z,2.13
2018-12-20T16:29:42.322Z,2.47
2018-12-20T16:32:10.854Z,2.77
2018-12-20T16:34:39.273Z,3.13
2018-12-20T16:37:11.351Z,2.80
2018-12-20T16:39:39.785Z,3.00
2018-12-20T16:42:08.202Z,2.77
2018-12-20T16:44:36.760Z,3.40
2018-12-20T16:47:05.275Z,2.63
2018-12-20T16:49:33.694Z,3.13
2018-12-20T16:52:02.114Z,3.10
2018-12-20T16:54:30.654Z,2.93
2018-12-20T16:56:59.148Z,2.80
2018-12-20T16:59:27.569Z,3.73
2018-12-20T17:01:56.202Z,3.00
2018-12-20T17:04:24.963Z,2.90
2018-12-20T17:06:53.367Z,3.10
2018-12-20T17:09:21.818Z,2.57
2018-12-20T17:11:50.259Z,2.63
2018-12-20T17:14:18.748Z,2.70
2018-12-20T17:16:47.188Z,2.83
2018-12-20T17:19:22.045Z,3.40
2018-12-20T17:21:46.047Z,3.53
2018-12-20T17:24:31.093Z,2.87
2018-12-20T17:26:59.533Z,3.30
2018-12-20T17:29:27.953Z,5.07
2018-12-20T17:31:56.409Z,3.87
2018-12-20T17:34:24.930Z,4.27
2018-12-20T17:36:53.350Z,3.60
2018-12-20T17:39:21.743Z,3.20
2018-12-20T17:41:50.373Z,2.90
2018-12-20T17:44:18.795Z,3.40
2018-12-20T17:46:47.212Z,3.10
2018-12-20T17:49:15.628Z,2.87
2018-12-20T17:51:44.034Z,3.20
2018-12-20T17:54:12.587Z,2.93
2018-12-20T17:56:41.631Z,2.87
2018-12-20T17:59:10.260Z,3.33
2018-12-20T18:01:40.244Z,3.53
2018-12-20T18:04:08.958Z,3.13
2018-12-20T18:06:37.508Z,2.87
2018-12-20T18:09:08.435Z,2.60
2018-12-20T18:11:36.870Z,2.70
2018-12-20T18:14:05.576Z,2.63
2018-12-20T18:16:34.173Z,2.23
2018-12-20T18:19:02.604Z,2.57
2018-12-20T18:21:31.032Z,2.73
2018-12-20T18:23:59.514Z,2.80
2018-12-20T18:26:27.979Z,3.10
2018-12-20T18:28:56.408Z,2.67
2018-12-20T18:31:24.839Z,2.43
2018-12-20T18:33:53.399Z,2.20
2018-12-20T18:36:21.940Z,2.50
2018-12-20T18:38:50.510Z,2.40
2018-12-20T18:41:19.090Z,2.00
2018-12-20T18:43:47.507Z,1.90
2018-12-20T18:46:16.042Z,2.10
2018-12-20T18:48:44.508Z,2.37
2018-12-20T18:51:13.022Z,2.10
2018-12-20T18:53:41.505Z,2.00
2018-12-20T18:56:09.940Z,2.60
2018-12-20T18:58:38.447Z,3.10
2018-12-20T19:01:06.893Z,2.50
2018-12-20T19:03:35.293Z,2.43
2018-12-20T19:06:03.856Z,2.73
2018-12-20T19:08:32.517Z,3.00
2018-12-20T19:11:00.937Z,3.20
2018-12-20T19:13:29.406Z,2.43
2018-12-20T19:15:57.943Z,2.87
2018-12-20T19:18:26.481Z,2.70
2018-12-20T19:20:55.115Z,2.97
2018-12-20T19:23:23.939Z,2.70
2018-12-20T19:25:52.606Z,2.97
2018-12-20T19:28:21.207Z,3.97
2018-12-20T19:30:49.828Z,3.30
2018-12-20T19:33:18.238Z,3.40
2018-12-20T19:35:46.737Z,4.20
2018-12-20T19:38:20.395Z,3.20
2018-12-20T19:40:45.704Z,3.80
2018-12-20T19:43:14.274Z,3.90
2018-12-20T19:45:46.069Z,4.07
2018-12-20T19:48:13.308Z,4.67
2018-12-20T19:50:41.778Z,3.77
2018-12-20T19:53:10.252Z,3.93
2018-12-20T19:55:39.734Z,3.70
2018-12-20T19:58:08.178Z,3.20
2018-12-20T20:00:36.591Z,4.30
2018-12-20T20:03:05.144Z,3.33
2018-12-20T20:05:33.578Z,3.33
2018-12-20T20:08:02.156Z,3.17
2018-12-20T20:10:30.637Z,3.40
2018-12-20T20:12:59.069Z,2.80
2018-12-20T20:15:27.630Z,2.67
2018-12-20T20:17:56.070Z,2.73
2018-12-20T20:20:24.491Z,2.47
2018-12-20T20:22:53.347Z,2.57
2018-12-20T20:25:21.939Z,2.43
2018-12-20T20:27:50.517Z,2.70
2018-12-20T20:30:19.226Z,2.60
2018-12-20T20:32:47.653Z,2.60
2018-12-20T20:35:16.119Z,2.03
2018-12-20T20:37:44.708Z,2.30
2018-12-20T20:40:13.126Z,2.83
2018-12-20T20:42:41.555Z,2.40
2018-12-20T20:45:10.085Z,1.83
2018-12-20T20:47:38.503Z,1.97
2018-12-20T20:50:08.361Z,2.83
2018-12-20T20:52:36.792Z,2.10
2018-12-20T20:55:07.104Z,2.23
2018-12-20T20:57:35.642Z,2.10
2018-12-20T21:00:05.895Z,2.30
2018-12-20T21:02:34.357Z,2.10
2018-12-20T21:05:23.972Z,1.90
2018-12-20T21:07:52.516Z,2.10
2018-12-20T21:10:20.954Z,2.90
2018-12-20T21:12:49.491Z,2.80
2018-12-20T21:15:17.922Z,2.30
2018-12-20T21:17:46.339Z,2.30
2018-12-20T21:20:35.462Z,2.10
2018-12-20T21:23:04.014Z,2.20
2018-12-20T21:25:32.456Z,1.60
2018-12-20T21:28:00.884Z,2.30
2018-12-20T21:30:29.364Z,2.37
2018-12-20T21:32:57.993Z,1.93
2018-12-20T21:35:26.430Z,2.13
2018-12-20T21:37:55.222Z,2.20
2018-12-20T21:40:23.727Z,1.97
2018-12-20T21:42:52.148Z,1.83
2018-12-20T21:45:22.898Z,1.70
2018-12-20T21:47:51.439Z,2.07
2018-12-20T21:50:19.975Z,2.10
2018-12-20T21:53:09.401Z,2.10
2018-12-20T21:55:37.886Z,1.80
2018-12-20T21:58:06.319Z,2.00
2018-12-20T22:00:34.821Z,2.03
2018-12-20T22:03:03.308Z,2.27
2018-12-20T22:05:31.711Z,1.90
2018-12-20T22:08:11.079Z,2.03
2018-12-20T22:10:39.635Z,1.80
2018-12-20T22:13:08.067Z,1.83
2018-12-20T22:15:36.479Z,2.03
2018-12-20T22:18:04.896Z,1.80
2018-12-20T22:20:33.304Z,2.03
2018-12-20T22:23:22.681Z,1.63
2018-12-20T22:26:06.153Z,1.70
2018-12-20T22:28:34.621Z,3.23
2018-12-20T22:31:03.291Z,1.83
2018-12-20T22:33:31.858Z,2.53
2018-12-20T22:36:21.235Z,3.43
2018-12-20T22:38:49.749Z,1.70
2018-12-20T22:41:18.185Z,2.60
2018-12-20T22:43:47.032Z,2.53
2018-12-20T22:46:15.457Z,2.33
2018-12-20T22:48:43.990Z,1.87
2018-12-20T22:51:14.019Z,1.70
2018-12-20T22:53:42.456Z,2.40
2018-12-20T22:56:10.876Z,1.77
2018-12-20T22:58:39.444Z,2.00
2018-12-20T23:01:07.875Z,1.77
2018-12-20T23:03:36.274Z,2.17
2018-12-20T23:06:04.949Z,1.50
2018-12-20T23:08:33.357Z,1.50
2018-12-20T23:11:01.756Z,2.37
2018-12-20T23:13:30.239Z,1.80
2018-12-20T23:15:58.858Z,1.70
2018-12-20T23:18:27.264Z,2.03
2018-12-20T23:21:13.037Z,2.10
2018-12-20T23:23:41.523Z,2.00
2018-12-20T23:26:10.017Z,1.83
2018-12-20T23:28:38.587Z,1.87
2018-12-20T23:31:07.805Z,1.80
2018-12-20T23:33:36.202Z,1.93
2018-12-20T23:36:05.247Z,1.70
2018-12-20T23:38:37.037Z,2.10
2018-12-20T23:41:05.450Z,1.87
2018-12-20T23:43:33.978Z,2.20
2018-12-20T23:46:02.402Z,1.97
2018-12-20T23:48:30.916Z,2.00
2018-12-20T23:50:59.305Z,1.97
2018-12-20T23:53:35.027Z,1.83
2018-12-20T23:56:03.446Z,1.90
2018-12-20T23:58:31.907Z,1.93
